Disclaimer

Please do not use the information listed here in-flight or in-navigation, as they are not provided to us by the airports but are provided by volunteers, so they might be outdated.

Search


Regions


Airport information page

Radio informations:
Tower (TWR) - 118.1 MHz
APRON - 122.65 MHz
Ground (GND) - 121.9 MHz
Automatic Terminal Information Service (ATIS) - 127.0 MHz
ARSA RDR - 119.7 MHz
Approach (APP) - 119.7 MHz

Airport informations:
Latitude: 33° 57' 53.30" S
Longitude: 018° 36' 06.00" E
Elevation: 151 feet - 46 meters
Operating hours: N/A
Operating agency: Military-civil joint use airport
Timezone: UTC+2
Fuel: Jet A1, without icing nhibitor.

100/130 MIL Spec, low lead, aviation gasoline (BLUE)

Runway information:
01/19 - 10502 x 200 feet< - >3201 x 61 meters
16/34 - 5581 x 151 feet< - >1701 x 46 meters

Recent METARs:
FACT 130200Z 04004KT 020V080 9999 FEW050 14/11 Q1019 NOSIG
FACT 130200Z 04004KT 020V080 9999 FEW050 14/11 Q1019 NOSIG
FACT 130300Z 05004KT 9999 SCT045 14/11 Q1019 NOSIG

Airport on the map: